Wainwright Airport Wainwright US
ICAO: PAWI
IATA:
Category: Medium
Scheduled Services:

Elevation: 41 ft
TransAlt. 18000 ft.

Airport Communications:
ASOS:132.25
ANCHORAGE CNTR:135.3
CTAF:122.8
FAIRBANKS RDO:122.5

PAWI Zoom In..

If you have problems with the map follow the link
https://www.worldairports.se/pages/airport.php?
ICAO=PAWI

Runways:

(A) RW 05 length 4494 ft width 110 ft
---- / hdg 50

(B) RW 23 length 4494 ft width 110 ft
---- / hdg 230

Location; PAWI
Day. 12 / Time. 09.53 Zulu
* Altimeter: 29.74
* Temperature: -11° c. -12.2°f.
* Wind from: 100° Speed 04 kn.
Dewpoint: -13° c.
Visibility: 10 Statute Miles.
Clouds: Few 300 ft.

PAWI 120953Z AUTO 10004KT 10SM FEW003 M11/M13 A2974 RMK SLP072 I1001 T11111128 TSNO PNO VIA AUTODIAL


Wind From 100°
Speed 04 kn.

 
 
jpsmedia worldairports.se 2019   terms of use